createdAt,value
2023-03-29T00:01:42.234Z,98743.63
2023-03-29T00:04:10.172Z,98743.63
2023-03-29T00:06:37.807Z,98751.25
2023-03-29T00:09:05.909Z,98758.94
2023-03-29T00:11:32.561Z,98766.56
2023-03-29T00:14:01.567Z,98768.25
2023-03-29T00:16:28.160Z,98775.06
2023-03-29T00:18:55.366Z,98768.34
2023-03-29T00:21:21.846Z,98767.41
2023-03-29T00:23:51.127Z,98763.25
2023-03-29T00:26:20.714Z,98756.44
2023-03-29T00:28:53.274Z,98751.31
2023-03-29T00:31:20.055Z,98747.91
2023-03-29T00:33:47.089Z,98750.50
2023-03-29T00:36:14.667Z,98746.22
2023-03-29T00:38:41.289Z,98736.84
2023-03-29T00:41:15.309Z,98729.19
2023-03-29T00:44:03.028Z,98723.25
2023-03-29T00:46:37.280Z,98711.38
2023-03-29T00:49:20.353Z,98709.66
2023-03-29T00:51:52.644Z,98703.72
2023-03-29T00:54:21.107Z,98695.22
2023-03-29T00:57:01.920Z,98696.97
2023-03-29T00:59:37.473Z,98691.84
2023-03-29T01:02:14.563Z,98684.25
2023-03-29T01:04:53.635Z,98675.72
2023-03-29T01:07:23.183Z,98666.34
2023-03-29T01:09:57.008Z,98659.56
2023-03-29T01:12:29.667Z,98666.31
2023-03-29T01:15:06.501Z,98661.28
2023-03-29T01:17:33.213Z,98651.03
2023-03-29T01:20:13.978Z,98646.72
2023-03-29T01:23:14.501Z,98639.97
2023-03-29T01:26:10.992Z,98640.81
2023-03-29T01:28:46.906Z,98639.94
2023-03-29T01:31:22.970Z,98639.06
2023-03-29T01:33:53.718Z,98636.59
2023-03-29T01:36:29.261Z,98628.94
2023-03-29T01:39:12.469Z,98630.59
2023-03-29T01:42:02.335Z,98619.56
2023-03-29T01:44:59.581Z,98616.16
2023-03-29T01:48:08.187Z,98621.25
2023-03-29T01:50:43.200Z,98619.59
2023-03-29T01:53:39.272Z,98612.78
2023-03-29T01:56:12.490Z,98614.47
2023-03-29T01:58:46.371Z,98617.84
2023-03-29T02:01:18.540Z,98615.28
2023-03-29T02:03:50.791Z,98610.19
2023-03-29T02:06:21.215Z,98608.47
2023-03-29T02:08:50.184Z,98608.47
2023-03-29T02:11:19.942Z,98605.94
2023-03-29T02:13:51.842Z,98593.19
2023-03-29T02:16:19.600Z,98600.84
2023-03-29T02:18:55.788Z,98602.59
2023-03-29T02:25:12.995Z,98605.13
2023-03-29T02:27:58.193Z,98604.28
2023-03-29T02:30:33.810Z,98589.00
2023-03-29T02:33:24.187Z,98587.31
2023-03-29T02:40:19.338Z,98599.19
2023-03-29T02:43:12.067Z,98589.84
2023-03-29T02:46:18.094Z,98590.72
2023-03-29T02:49:00.008Z,98592.47
2023-03-29T02:52:08.410Z,98599.22
2023-03-29T03:01:06.018Z,98570.34
2023-03-29T03:03:52.070Z,98578.81
2023-03-29T03:09:14.442Z,98571.19
2023-03-29T03:11:52.021Z,98562.69
2023-03-29T03:15:43.223Z,98566.91
2023-03-29T03:18:01.752Z,98553.25
2023-03-29T03:20:31.463Z,98553.31
2023-03-29T03:23:03.785Z,98553.31
2023-03-29T03:25:30.471Z,98549.03
2023-03-29T03:27:59.717Z,98550.75
2023-03-29T03:30:29.670Z,98554.13
2023-03-29T03:33:02.138Z,98555.88
2023-03-29T03:35:36.036Z,98549.06
2023-03-29T03:40:59.253Z,98546.50
2023-03-29T04:06:32.774Z,98510.84
2023-03-29T04:08:59.706Z,98508.28
2023-03-29T04:11:26.131Z,98508.28
2023-03-29T04:13:52.704Z,98503.16
2023-03-29T04:16:19.146Z,98504.91
2023-03-29T04:18:45.803Z,98497.19
2023-03-29T04:21:12.490Z,98501.44
2023-03-29T04:23:38.901Z,98492.09
2023-03-29T04:26:06.484Z,98494.66
2023-03-29T04:28:32.922Z,98495.53
2023-03-29T04:31:02.411Z,98495.53
2023-03-29T04:33:29.399Z,98490.41
2023-03-29T04:35:59.075Z,98480.25
2023-03-29T04:38:26.680Z,98486.19
2023-03-29T04:40:55.125Z,98481.09
2023-03-29T04:43:23.553Z,98483.63
2023-03-29T04:45:50.106Z,98476.88
2023-03-29T04:48:17.025Z,98478.53
2023-03-29T04:50:46.729Z,98477.72
2023-03-29T04:53:13.183Z,98474.31
2023-03-29T04:55:40.959Z,98475.16
2023-03-29T04:58:07.469Z,98470.06
2023-03-29T05:00:34.050Z,98472.59
2023-03-29T05:03:00.769Z,98474.34
2023-03-29T05:05:27.206Z,98479.41
2023-03-29T05:07:57.091Z,98468.34
2023-03-29T05:10:26.125Z,98464.97
2023-03-29T05:12:53.916Z,98460.69
2023-03-29T05:15:21.369Z,98470.91
2023-03-29T05:17:48.812Z,98462.44
2023-03-29T05:20:16.159Z,98461.59
2023-03-29T05:22:42.614Z,98467.53
2023-03-29T05:25:11.446Z,98474.31
2023-03-29T05:27:37.824Z,98466.69
2023-03-29T05:30:04.652Z,98469.25
2023-03-29T05:32:31.240Z,98457.34
2023-03-29T05:34:57.809Z,98455.66
2023-03-29T05:37:24.217Z,98456.50
2023-03-29T05:39:50.622Z,98459.03
2023-03-29T05:42:19.222Z,98456.50
2023-03-29T05:44:45.667Z,98465.00
2023-03-29T05:47:12.110Z,98464.13
2023-03-29T05:49:38.596Z,98461.59
2023-03-29T05:52:06.705Z,98457.38
2023-03-29T05:54:33.335Z,98461.59
2023-03-29T05:56:59.832Z,98459.91
2023-03-29T05:59:28.509Z,98464.19
2023-03-29T06:01:54.985Z,98467.56
2023-03-29T06:04:21.696Z,98468.44
2023-03-29T06:06:48.610Z,98455.69
2023-03-29T06:09:15.540Z,98465.88
2023-03-29T06:11:41.935Z,98461.63
2023-03-29T06:14:08.405Z,98463.34
2023-03-29T06:16:34.995Z,98464.19
2023-03-29T06:19:01.424Z,98459.06
2023-03-29T06:21:28.468Z,98459.94
2023-03-29T06:23:54.971Z,98460.78
2023-03-29T06:26:21.576Z,98462.50
2023-03-29T06:28:51.301Z,98453.97
2023-03-29T06:31:19.793Z,98446.31
2023-03-29T06:33:46.793Z,98459.06
2023-03-29T06:36:16.111Z,98452.25
2023-03-29T06:38:45.399Z,98453.97
2023-03-29T06:41:11.882Z,98450.53
2023-03-29T06:43:38.897Z,98451.41
2023-03-29T06:46:11.708Z,98459.91
2023-03-29T06:48:39.146Z,98456.50
2023-03-29T06:51:07.548Z,98462.47
2023-03-29T06:53:34.716Z,98464.16
2023-03-29T06:56:05.309Z,98468.41
2023-03-29T06:58:31.825Z,98468.38
2023-03-29T07:01:05.398Z,98457.31
2023-03-29T07:03:34.923Z,98464.97
2023-03-29T07:06:04.360Z,98460.72
2023-03-29T07:08:31.728Z,98473.47
2023-03-29T07:10:59.306Z,98480.22
2023-03-29T07:13:26.264Z,98473.31
2023-03-29T07:15:52.831Z,98474.16
2023-03-29T07:18:19.797Z,98468.22
2023-03-29T07:20:47.635Z,98477.59
2023-03-29T07:23:14.112Z,98486.09
2023-03-29T07:25:41.092Z,98477.50
2023-03-29T07:28:07.643Z,98482.63
2023-03-29T07:30:34.589Z,98486.78
2023-03-29T07:33:01.212Z,98482.41
2023-03-29T07:35:28.456Z,98488.38
2023-03-29T07:37:55.879Z,98483.16
2023-03-29T07:40:26.294Z,98480.59
2023-03-29T07:42:55.156Z,98486.53
2023-03-29T07:45:26.750Z,98487.25
2023-03-29T07:47:58.024Z,98478.56
2023-03-29T07:50:25.324Z,98477.56
2023-03-29T07:52:52.117Z,98472.28
2023-03-29T07:55:22.081Z,98467.78
2023-03-29T07:57:49.683Z,98477.63
2023-03-29T08:00:17.196Z,98477.53
2023-03-29T08:02:45.510Z,98476.47
2023-03-29T08:05:15.370Z,98481.50
2023-03-29T08:07:44.550Z,98482.00
2023-03-29T08:10:16.020Z,98480.63
2023-03-29T08:12:43.320Z,98465.97
2023-03-29T08:15:11.014Z,98469.66
2023-03-29T08:17:40.180Z,98477.19
2023-03-29T08:20:10.734Z,98473.78
2023-03-29T08:22:37.887Z,98473.28
2023-03-29T08:25:05.557Z,98463.50
2023-03-29T08:27:32.266Z,98469.88
2023-03-29T08:29:59.198Z,98465.38
2023-03-29T08:32:25.878Z,98462.63
2023-03-29T08:34:52.651Z,98463.75
2023-03-29T08:37:20.165Z,98472.44
2023-03-29T08:39:46.655Z,98474.47
2023-03-29T08:42:38.628Z,98469.88
2023-03-29T08:45:23.471Z,98471.22
2023-03-29T08:48:18.616Z,98460.09
2023-03-29T08:50:52.855Z,98456.69
2023-03-29T08:53:44.108Z,98469.00
2023-03-29T08:56:15.821Z,98460.06
2023-03-29T08:58:43.352Z,98461.06
2023-03-29T09:01:11.484Z,98450.75
2023-03-29T09:03:45.226Z,98457.22
2023-03-29T09:06:12.863Z,98451.81
2023-03-29T09:08:43.755Z,98451.63
2023-03-29T09:11:46.179Z,98445.41
2023-03-29T09:14:57.308Z,98454.41
2023-03-29T09:17:35.920Z,98445.41
2023-03-29T09:20:24.194Z,98442.59
2023-03-29T09:23:02.216Z,98450.69
2023-03-29T09:25:58.063Z,98452.81
2023-03-29T09:28:38.298Z,98450.13
2023-03-29T09:31:18.779Z,98447.13
2023-03-29T09:33:56.213Z,98443.09
2023-03-29T09:36:52.439Z,98452.16
2023-03-29T09:39:21.194Z,98452.09
2023-03-29T09:41:54.928Z,98453.56
2023-03-29T09:44:31.605Z,98455.75
2023-03-29T09:47:03.471Z,98460.72
2023-03-29T09:49:36.000Z,98457.00
2023-03-29T09:52:09.141Z,98452.31
2023-03-29T09:54:35.868Z,98456.72
2023-03-29T09:57:03.233Z,98446.34
2023-03-29T09:59:30.606Z,98452.88
2023-03-29T10:02:09.164Z,98439.38
2023-03-29T10:04:42.955Z,98431.47
2023-03-29T10:07:23.765Z,98434.56
2023-03-29T10:09:52.645Z,98435.88
2023-03-29T10:12:19.937Z,98428.47
2023-03-29T10:14:52.193Z,98432.84
2023-03-29T10:17:22.286Z,98433.75
2023-03-29T10:20:12.085Z,98444.03
2023-03-29T10:22:40.504Z,98439.19
2023-03-29T10:25:13.902Z,98439.66
2023-03-29T10:27:43.558Z,98435.19
2023-03-29T10:30:13.092Z,98438.72
2023-03-29T10:32:40.670Z,98430.84
2023-03-29T10:35:14.840Z,98441.13
2023-03-29T10:37:43.816Z,98431.06
2023-03-29T10:40:27.048Z,98428.13
2023-03-29T10:42:57.776Z,98434.81
2023-03-29T10:45:27.782Z,98430.13
2023-03-29T10:47:58.443Z,98431.72
2023-03-29T10:50:34.280Z,98430.66
2023-03-29T10:53:06.565Z,98422.41
2023-03-29T10:55:41.019Z,98414.97
2023-03-29T10:58:31.490Z,98420.66
2023-03-29T11:00:58.328Z,98414.97
2023-03-29T11:03:49.768Z,98416.94
2023-03-29T11:06:28.143Z,98419.69
2023-03-29T11:08:58.774Z,98409.16
2023-03-29T11:12:04.413Z,98406.38
2023-03-29T11:14:52.741Z,98404.59
2023-03-29T11:17:51.841Z,98407.78
2023-03-29T11:20:31.891Z,98406.50
2023-03-29T11:23:18.079Z,98406.56
2023-03-29T11:25:57.357Z,98407.28
2023-03-29T11:28:28.548Z,98410.13
2023-03-29T11:31:05.586Z,98409.06
2023-03-29T11:34:04.453Z,98409.94
2023-03-29T11:36:33.528Z,98410.78
2023-03-29T11:39:16.754Z,98411.31
2023-03-29T11:41:48.636Z,98411.44
2023-03-29T11:44:21.054Z,98406.06
2023-03-29T11:47:12.769Z,98405.22
2023-03-29T11:49:45.428Z,98398.38
2023-03-29T11:52:38.720Z,98402.59
2023-03-29T11:55:19.678Z,98397.13
2023-03-29T11:57:59.880Z,98395.06
2023-03-29T12:00:36.383Z,98399.31
2023-03-29T12:03:14.230Z,98388.00
2023-03-29T12:05:44.096Z,98391.63
2023-03-29T12:08:23.631Z,98394.69
2023-03-29T12:10:56.977Z,98394.66
2023-03-29T12:13:32.194Z,98388.63
2023-03-29T12:16:16.579Z,98389.47
2023-03-29T12:18:47.617Z,98393.31
2023-03-29T12:21:18.776Z,98383.66
2023-03-29T12:23:46.374Z,98381.88
2023-03-29T12:26:25.420Z,98393.88
2023-03-29T12:29:16.861Z,98387.94
2023-03-29T12:32:11.468Z,98380.34
2023-03-29T12:34:56.635Z,98380.94
2023-03-29T12:37:47.031Z,98385.63
2023-03-29T12:40:15.505Z,98377.50
2023-03-29T12:42:52.817Z,98366.66
2023-03-29T12:45:32.005Z,98369.69
2023-03-29T12:48:00.245Z,98368.19
2023-03-29T12:50:34.189Z,98367.03
2023-03-29T12:53:24.754Z,98364.84
2023-03-29T12:56:08.545Z,98364.84
2023-03-29T12:58:38.664Z,98364.84
2023-03-29T13:01:24.033Z,98365.16
2023-03-29T13:04:11.518Z,98345.59
2023-03-29T13:06:46.939Z,98349.06
2023-03-29T13:09:46.811Z,98352.34
2023-03-29T13:12:27.170Z,98346.28
2023-03-29T13:15:16.663Z,98341.78
2023-03-29T13:18:20.993Z,98337.63
2023-03-29T13:20:57.236Z,98327.78
2023-03-29T13:23:24.042Z,98329.97
2023-03-29T13:26:24.986Z,98325.78
2023-03-29T13:29:22.474Z,98324.47
2023-03-29T13:32:18.480Z,98322.25
2023-03-29T13:34:54.056Z,98328.34
2023-03-29T13:37:42.481Z,98323.75
2023-03-29T13:40:31.709Z,98323.97
2023-03-29T13:43:29.324Z,98323.75
2023-03-29T13:45:58.788Z,98323.06
2023-03-29T13:48:28.421Z,98315.84
2023-03-29T13:51:07.933Z,98319.59
2023-03-29T13:53:40.191Z,98313.81
2023-03-29T13:56:15.306Z,98315.13
2023-03-29T13:58:46.606Z,98306.75
2023-03-29T14:01:31.260Z,98310.56
2023-03-29T14:03:59.184Z,98320.88
2023-03-29T14:06:29.678Z,98326.50
2023-03-29T14:08:56.483Z,98323.03
2023-03-29T14:11:29.138Z,98321.78
2023-03-29T14:14:00.105Z,98325.59
2023-03-29T14:16:29.667Z,98323.59
2023-03-29T14:19:07.683Z,98320.69
2023-03-29T14:21:37.479Z,98326.44
2023-03-29T14:24:26.958Z,98322.03
2023-03-29T14:26:55.224Z,98320.28
2023-03-29T14:29:35.878Z,98322.09
2023-03-29T14:32:20.987Z,98326.16
2023-03-29T14:34:52.077Z,98323.13
2023-03-29T14:37:42.459Z,98324.53
2023-03-29T14:40:35.674Z,98319.34
2023-03-29T14:43:34.173Z,98314.19
2023-03-29T14:46:09.425Z,98304.44
2023-03-29T14:48:40.574Z,98297.53
2023-03-29T14:51:30.520Z,98295.44
2023-03-29T14:54:04.630Z,98288.78
2023-03-29T14:56:37.726Z,98287.31
2023-03-29T14:59:32.583Z,98280.66
2023-03-29T15:02:14.909Z,98281.22
2023-03-29T15:04:53.342Z,98274.50
2023-03-29T15:07:33.303Z,98274.16
2023-03-29T15:10:04.874Z,98269.53
2023-03-29T15:12:32.967Z,98264.97
2023-03-29T15:15:07.807Z,98276.19
2023-03-29T15:17:58.504Z,98270.50
2023-03-29T15:20:36.035Z,98267.84
2023-03-29T15:23:22.858Z,98265.75
2023-03-29T15:26:07.644Z,98259.56
2023-03-29T15:28:52.102Z,98261.84
2023-03-29T15:31:28.225Z,98253.97
2023-03-29T15:34:11.850Z,98250.75
2023-03-29T15:36:48.303Z,98242.44
2023-03-29T15:39:22.039Z,98240.44
2023-03-29T15:41:58.863Z,98238.50
2023-03-29T15:44:42.652Z,98235.41
2023-03-29T15:47:17.049Z,98233.56
2023-03-29T15:49:51.133Z,98240.25
2023-03-29T15:52:26.991Z,98237.81
2023-03-29T15:55:03.872Z,98235.28
2023-03-29T15:57:51.884Z,98238.56
2023-03-29T16:06:39.009Z,98231.50
2023-03-29T16:17:03.993Z,98222.19
2023-03-29T16:41:46.913Z,98198.25
2023-03-29T17:08:03.811Z,98206.00
2023-03-29T17:11:40.919Z,98200.81
2023-03-29T17:14:50.302Z,98195.16
2023-03-29T17:17:32.035Z,98195.44
2023-03-29T17:20:22.840Z,98192.03
2023-03-29T17:22:52.739Z,98192.25
2023-03-29T17:25:34.038Z,98193.44
2023-03-29T17:28:07.846Z,98198.34
2023-03-29T17:30:43.542Z,98201.16
2023-03-29T17:33:16.449Z,98195.38
2023-03-29T17:36:04.308Z,98188.63
2023-03-29T17:38:44.570Z,98176.72
2023-03-29T17:41:58.094Z,98188.38
2023-03-29T17:44:44.324Z,98179.22
2023-03-29T17:47:15.209Z,98179.28
2023-03-29T17:49:47.868Z,98178.91
2023-03-29T17:52:31.056Z,98175.50
2023-03-29T17:55:21.505Z,98172.31
2023-03-29T18:22:07.020Z,98186.59
2023-03-29T18:25:21.395Z,98191.66
2023-03-29T18:38:06.638Z,98183.06
2023-03-29T18:40:56.217Z,98190.16
2023-03-29T18:47:07.666Z,98186.75
2023-03-29T18:49:41.890Z,98190.31
2023-03-29T18:52:18.062Z,98188.78
2023-03-29T18:55:09.865Z,98187.13
2023-03-29T18:57:50.351Z,98195.69
2023-03-29T19:00:36.893Z,98186.16
2023-03-29T19:03:12.629Z,98186.75
2023-03-29T19:05:49.558Z,98184.06
2023-03-29T19:11:34.816Z,98176.91
2023-03-29T19:14:01.579Z,98176.06
2023-03-29T19:16:28.014Z,98179.41
2023-03-29T19:18:56.785Z,98180.88
2023-03-29T19:21:23.261Z,98171.06
2023-03-29T19:23:52.935Z,98166.75
2023-03-29T19:26:19.327Z,98171.00
2023-03-29T19:28:46.049Z,98170.13
2023-03-29T19:31:13.189Z,98171.81
2023-03-29T19:33:40.752Z,98168.19
2023-03-29T19:36:07.655Z,98163.75
2023-03-29T19:38:34.290Z,98167.31
2023-03-29T19:41:01.049Z,98163.63
2023-03-29T19:43:27.494Z,98164.50
2023-03-29T19:45:53.902Z,98164.50
2023-03-29T19:48:22.949Z,98152.69
2023-03-29T19:50:50.253Z,98146.72
2023-03-29T19:53:16.883Z,98139.72
2023-03-29T19:55:45.020Z,98136.06
2023-03-29T19:58:14.444Z,98130.75
2023-03-29T20:00:41.751Z,98130.06
2023-03-29T20:03:12.420Z,98134.22
2023-03-29T20:05:39.012Z,98142.88
2023-03-29T20:08:09.300Z,98143.66
2023-03-29T20:10:36.352Z,98131.75
2023-03-29T20:13:05.657Z,98129.72
2023-03-29T20:15:32.193Z,98127.97
2023-03-29T20:18:01.666Z,98133.34
2023-03-29T20:20:29.610Z,98142.19
2023-03-29T20:23:04.644Z,98133.78
2023-03-29T20:25:34.302Z,98129.97
2023-03-29T20:28:00.710Z,98128.53
2023-03-29T20:30:27.267Z,98136.44
2023-03-29T20:32:59.732Z,98124.53
2023-03-29T20:35:29.223Z,98117.53
2023-03-29T20:37:56.047Z,98112.56
2023-03-29T20:40:22.799Z,98111.53
2023-03-29T20:42:49.246Z,98121.13
2023-03-29T20:45:18.792Z,98110.97
2023-03-29T20:48:00.298Z,98108.25
2023-03-29T20:50:26.803Z,98099.38
2023-03-29T20:52:56.473Z,98112.38
2023-03-29T20:55:23.893Z,98115.72
2023-03-29T20:57:57.800Z,98111.44
2023-03-29T21:00:25.715Z,98102.75
2023-03-29T21:02:58.538Z,98092.34
2023-03-29T21:05:30.146Z,98109.25
2023-03-29T21:07:57.005Z,98099.09
2023-03-29T21:10:24.747Z,98102.06
2023-03-29T21:12:54.264Z,98084.00
2023-03-29T21:15:20.843Z,98078.84
2023-03-29T21:17:47.740Z,98071.13
2023-03-29T21:20:15.330Z,98084.31
2023-03-29T21:22:45.604Z,98086.75
2023-03-29T21:25:16.911Z,98074.47
2023-03-29T21:27:43.366Z,98061.13
2023-03-29T21:30:13.686Z,98051.16
2023-03-29T21:32:40.428Z,98057.84
2023-03-29T21:35:07.675Z,98064.97
2023-03-29T21:37:34.083Z,98062.19
2023-03-29T21:40:00.516Z,98055.38
2023-03-29T21:42:26.947Z,98064.09
2023-03-29T21:44:53.322Z,98058.94
2023-03-29T21:47:19.732Z,98054.00
2023-03-29T21:49:46.134Z,98047.16
2023-03-29T21:52:12.566Z,98044.41
2023-03-29T21:54:39.014Z,98046.03
2023-03-29T21:57:05.589Z,98049.72
2023-03-29T21:59:32.030Z,98045.34
2023-03-29T22:01:58.457Z,98031.56
2023-03-29T22:04:35.970Z,98028.09
2023-03-29T22:07:04.121Z,98022.03
2023-03-29T22:09:32.928Z,98029.00
2023-03-29T22:11:59.762Z,98030.81
2023-03-29T22:14:28.471Z,98013.75
2023-03-29T22:16:55.235Z,98012.75
2023-03-29T22:19:22.023Z,98014.31
2023-03-29T22:21:48.723Z,98013.38
2023-03-29T22:24:16.267Z,98011.38
2023-03-29T22:26:44.901Z,98003.47
2023-03-29T22:29:11.475Z,98009.13
2023-03-29T22:31:39.381Z,98004.94
2023-03-29T22:34:07.564Z,98005.16
2023-03-29T22:36:36.171Z,98000.50
2023-03-29T22:39:03.647Z,97999.78
2023-03-29T22:41:30.412Z,97999.25
2023-03-29T22:43:58.702Z,97996.41
2023-03-29T22:46:26.314Z,97988.13
2023-03-29T22:48:53.158Z,97987.84
2023-03-29T22:51:20.149Z,97988.84
2023-03-29T22:53:47.087Z,97988.84
2023-03-29T22:56:15.402Z,97979.25
2023-03-29T22:58:41.948Z,97983.06
2023-03-29T23:01:08.907Z,97979.72
2023-03-29T23:03:35.577Z,97974.53
2023-03-29T23:06:02.396Z,97976.22
2023-03-29T23:08:32.673Z,97971.78
2023-03-29T23:10:59.845Z,97967.38
2023-03-29T23:13:29.010Z,97964.44
2023-03-29T23:15:58.767Z,97966.25
2023-03-29T23:18:26.793Z,97961.09
2023-03-29T23:20:55.461Z,97954.69
2023-03-29T23:23:23.203Z,97958.84
2023-03-29T23:25:51.665Z,97952.78
2023-03-29T23:28:21.457Z,97943.03
2023-03-29T23:30:56.858Z,97940.06
2023-03-29T23:33:26.566Z,97935.53
2023-03-29T23:35:53.907Z,97937.19
2023-03-29T23:38:20.899Z,97941.34
2023-03-29T23:40:55.164Z,97955.88
2023-03-29T23:43:21.723Z,97939.91
2023-03-29T23:45:48.261Z,97933.69
2023-03-29T23:48:14.656Z,97926.34
2023-03-29T23:50:46.323Z,97929.56
2023-03-29T23:53:12.746Z,97927.16
2023-03-29T23:55:39.302Z,97932.97
2023-03-29T23:58:05.696Z,97924.53
